sensor_id;sensor_type;location;lat;lon;timestamp;pressure;altitude;pressure_sealevel;temperature;humidity
7441;BME280;29616;51.950;8.572;2023-11-22T00:01:53;101074.94;;;2.88;100.00
7441;BME280;29616;51.950;8.572;2023-11-22T00:04:25;101085.75;;;2.88;100.00
7441;BME280;29616;51.950;8.572;2023-11-22T00:06:55;101090.44;;;2.84;100.00
7441;BME280;29616;51.950;8.572;2023-11-22T00:09:26;101084.63;;;2.75;100.00
7441;BME280;29616;51.950;8.572;2023-11-22T00:11:56;101090.53;;;2.66;100.00
7441;BME280;29616;51.950;8.572;2023-11-22T00:14:29;101060.09;;;2.45;100.00
7441;BME280;29616;51.950;8.572;2023-11-22T00:16:59;101096.53;;;2.54;100.00
7441;BME280;29616;51.950;8.572;2023-11-22T00:19:32;101110.75;;;2.57;100.00
7441;BME280;29616;51.950;8.572;2023-11-22T00:22:04;101111.41;;;2.62;100.00
7441;BME280;29616;51.950;8.572;2023-11-22T00:24:42;101106.25;;;2.58;100.00
7441;BME280;29616;51.950;8.572;2023-11-22T00:27:15;101090.03;;;2.40;100.00
7441;BME280;29616;51.950;8.572;2023-11-22T00:29:45;101103.28;;;2.45;100.00
7441;BME280;29616;51.950;8.572;2023-11-22T00:32:15;101092.22;;;2.32;100.00
7441;BME280;29616;51.950;8.572;2023-11-22T00:34:46;101089.53;;;2.32;100.00
7441;BME280;29616;51.950;8.572;2023-11-22T00:37:17;101117.78;;;2.42;100.00
7441;BME280;29616;51.950;8.572;2023-11-22T00:39:47;101125.09;;;2.40;100.00
7441;BME280;29616;51.950;8.572;2023-11-22T00:42:18;101120.50;;;2.42;100.00
7441;BME280;29616;51.950;8.572;2023-11-22T00:44:49;101132.91;;;2.47;100.00
7441;BME280;29616;51.950;8.572;2023-11-22T00:47:20;101134.88;;;2.43;100.00
7441;BME280;29616;51.950;8.572;2023-11-22T00:49:52;101138.53;;;2.42;100.00
7441;BME280;29616;51.950;8.572;2023-11-22T00:52:23;101150.91;;;2.46;100.00
7441;BME280;29616;51.950;8.572;2023-11-22T00:54:52;101131.28;;;2.25;100.00
7441;BME280;29616;51.950;8.572;2023-11-22T00:57:22;101153.34;;;2.33;100.00
7441;BME280;29616;51.950;8.572;2023-11-22T00:59:51;101091.75;;;1.89;100.00
7441;BME280;29616;51.950;8.572;2023-11-22T01:02:21;101160.72;;;2.11;100.00
7441;BME280;29616;51.950;8.572;2023-11-22T01:04:50;101157.63;;;2.02;100.00
7441;BME280;29616;51.950;8.572;2023-11-22T01:07:21;101156.44;;;2.07;100.00
7441;BME280;29616;51.950;8.572;2023-11-22T01:09:51;101159.84;;;1.92;100.00
7441;BME280;29616;51.950;8.572;2023-11-22T01:12:20;101143.63;;;1.75;100.00
7441;BME280;29616;51.950;8.572;2023-11-22T01:14:50;101167.50;;;1.64;100.00
7441;BME280;29616;51.950;8.572;2023-11-22T01:17:20;101174.03;;;1.58;100.00
7441;BME280;29616;51.950;8.572;2023-11-22T01:19:48;101153.03;;;1.28;100.00
7441;BME280;29616;51.950;8.572;2023-11-22T01:22:22;101140.56;;;1.25;100.00
7441;BME280;29616;51.950;8.572;2023-11-22T01:24:51;101131.22;;;1.13;100.00
7441;BME280;29616;51.950;8.572;2023-11-22T01:27:20;101139.97;;;1.18;100.00
7441;BME280;29616;51.950;8.572;2023-11-22T01:29:50;101148.84;;;1.20;100.00
7441;BME280;29616;51.950;8.572;2023-11-22T01:32:24;101158.81;;;1.18;100.00
7441;BME280;29616;51.950;8.572;2023-11-22T01:34:53;101133.38;;;1.05;100.00
7441;BME280;29616;51.950;8.572;2023-11-22T01:37:29;101153.69;;;1.12;100.00
7441;BME280;29616;51.950;8.572;2023-11-22T01:39:58;101159.38;;;1.06;100.00
7441;BME280;29616;51.950;8.572;2023-11-22T01:42:27;101135.00;;;0.89;100.00
7441;BME280;29616;51.950;8.572;2023-11-22T01:44:57;101150.94;;;0.94;100.00
7441;BME280;29616;51.950;8.572;2023-11-22T01:47:28;101160.81;;;0.93;100.00
7441;BME280;29616;51.950;8.572;2023-11-22T01:50:00;101149.13;;;0.74;100.00
7441;BME280;29616;51.950;8.572;2023-11-22T01:52:35;101157.91;;;0.78;100.00
7441;BME280;29616;51.950;8.572;2023-11-22T01:55:07;101144.00;;;0.68;100.00
7441;BME280;29616;51.950;8.572;2023-11-22T01:57:37;101153.97;;;0.66;100.00
7441;BME280;29616;51.950;8.572;2023-11-22T02:00:08;101157.69;;;0.62;100.00
7441;BME280;29616;51.950;8.572;2023-11-22T02:02:43;101154.09;;;0.63;100.00
7441;BME280;29616;51.950;8.572;2023-11-22T02:05:14;101155.09;;;0.60;100.00
7441;BME280;29616;51.950;8.572;2023-11-22T02:07:46;101161.28;;;0.63;100.00
7441;BME280;29616;51.950;8.572;2023-11-22T02:10:15;101173.59;;;0.68;100.00
7441;BME280;29616;51.950;8.572;2023-11-22T02:12:46;101173.59;;;0.68;100.00
7441;BME280;29616;51.950;8.572;2023-11-22T02:15:16;101179.03;;;0.67;100.00
7441;BME280;29616;51.950;8.572;2023-11-22T02:17:46;101181.78;;;0.65;100.00
7441;BME280;29616;51.950;8.572;2023-11-22T02:20:16;101185.63;;;0.59;100.00
7441;BME280;29616;51.950;8.572;2023-11-22T02:22:47;101191.13;;;0.56;100.00
7441;BME280;29616;51.950;8.572;2023-11-22T02:25:18;101192.00;;;0.57;100.00
7441;BME280;29616;51.950;8.572;2023-11-22T02:27:50;101200.28;;;0.52;100.00
7441;BME280;29616;51.950;8.572;2023-11-22T02:30:18;101197.03;;;0.44;100.00
7441;BME280;29616;51.950;8.572;2023-11-22T02:32:52;101208.22;;;0.34;100.00
7441;BME280;29616;51.950;8.572;2023-11-22T02:35:22;101208.13;;;0.35;100.00
7441;BME280;29616;51.950;8.572;2023-11-22T02:37:53;101217.16;;;0.34;100.00
7441;BME280;29616;51.950;8.572;2023-11-22T02:40:24;101219.22;;;0.28;100.00
7441;BME280;29616;51.950;8.572;2023-11-22T02:42:53;101183.34;;;0.06;100.00
7441;BME280;29616;51.950;8.572;2023-11-22T02:45:27;101221.66;;;0.34;100.00
7441;BME280;29616;51.950;8.572;2023-11-22T02:47:56;101220.72;;;0.35;100.00
7441;BME280;29616;51.950;8.572;2023-11-22T02:50:27;101222.47;;;0.36;100.00
7441;BME280;29616;51.950;8.572;2023-11-22T02:52:56;101201.38;;;0.25;100.00
7441;BME280;29616;51.950;8.572;2023-11-22T02:55:28;101195.19;;;0.23;100.00
7441;BME280;29616;51.950;8.572;2023-11-22T02:57:56;101209.13;;;0.11;100.00
7441;BME280;29616;51.950;8.572;2023-11-22T03:00:26;101230.97;;;0.25;100.00
7441;BME280;29616;51.950;8.572;2023-11-22T03:02:58;101235.47;;;0.25;100.00
7441;BME280;29616;51.950;8.572;2023-11-22T03:05:28;101228.50;;;0.19;100.00
7441;BME280;29616;51.950;8.572;2023-11-22T03:08:00;101235.53;;;0.23;100.00
7441;BME280;29616;51.950;8.572;2023-11-22T03:10:31;101242.41;;;0.30;100.00
7441;BME280;29616;51.950;8.572;2023-11-22T03:13:01;101244.28;;;0.28;100.00
7441;BME280;29616;51.950;8.572;2023-11-22T03:15:31;101252.28;;;0.30;100.00
7441;BME280;29616;51.950;8.572;2023-11-22T03:17:59;101253.94;;;0.34;100.00
7441;BME280;29616;51.950;8.572;2023-11-22T03:20:31;101254.06;;;0.31;100.00
7441;BME280;29616;51.950;8.572;2023-11-22T03:22:59;101255.41;;;0.19;100.00
7441;BME280;29616;51.950;8.572;2023-11-22T03:25:32;101244.91;;;0.13;100.00
7441;BME280;29616;51.950;8.572;2023-11-22T03:28:02;101230.03;;;0.03;100.00
7441;BME280;29616;51.950;8.572;2023-11-22T03:30:30;101255.47;;;0.18;100.00
7441;BME280;29616;51.950;8.572;2023-11-22T03:33:00;101252.28;;;0.30;100.00
7441;BME280;29616;51.950;8.572;2023-11-22T03:35:29;101240.50;;;0.34;100.00
7441;BME280;29616;51.950;8.572;2023-11-22T03:37:59;101244.91;;;0.35;100.00
7441;BME280;29616;51.950;8.572;2023-11-22T03:40:31;101253.69;;;0.40;100.00
7441;BME280;29616;51.950;8.572;2023-11-22T03:43:04;101254.50;;;0.42;100.00
7441;BME280;29616;51.950;8.572;2023-11-22T03:45:36;101231.72;;;0.29;100.00
7441;BME280;29616;51.950;8.572;2023-11-22T03:48:08;101267.56;;;0.51;100.00
7441;BME280;29616;51.950;8.572;2023-11-22T03:50:36;101249.16;;;0.40;100.00
7441;BME280;29616;51.950;8.572;2023-11-22T03:53:06;101252.75;;;0.41;100.00
7441;BME280;29616;51.950;8.572;2023-11-22T03:55:38;101257.66;;;0.53;100.00
7441;BME280;29616;51.950;8.572;2023-11-22T03:58:09;101276.53;;;0.51;100.00
7441;BME280;29616;51.950;8.572;2023-11-22T04:00:38;101294.00;;;0.63;100.00
7441;BME280;29616;51.950;8.572;2023-11-22T04:03:08;101289.66;;;0.59;100.00
7441;BME280;29616;51.950;8.572;2023-11-22T04:05:38;101297.63;;;0.62;100.00
7441;BME280;29616;51.950;8.572;2023-11-22T04:08:09;101294.00;;;0.63;100.00
7441;BME280;29616;51.950;8.572;2023-11-22T04:10:40;101258.94;;;0.43;100.00
7441;BME280;29616;51.950;8.572;2023-11-22T04:13:09;101286.13;;;0.58;100.00
7441;BME280;29616;51.950;8.572;2023-11-22T04:15:40;101296.88;;;0.58;100.00
7441;BME280;29616;51.950;8.572;2023-11-22T04:18:09;101309.50;;;0.56;100.00
7441;BME280;29616;51.950;8.572;2023-11-22T04:20:39;101308.75;;;0.53;100.00
7441;BME280;29616;51.950;8.572;2023-11-22T04:23:07;101306.41;;;0.44;100.00
7441;BME280;29616;51.950;8.572;2023-11-22T04:25:41;101292.59;;;0.31;100.00
7441;BME280;29616;51.950;8.572;2023-11-22T04:28:12;101304.16;;;0.33;100.00
7441;BME280;29616;51.950;8.572;2023-11-22T04:30:43;101296.97;;;0.34;100.00
7441;BME280;29616;51.950;8.572;2023-11-22T04:33:13;101291.59;;;0.34;100.00
7441;BME280;29616;51.950;8.572;2023-11-22T04:35:44;101315.56;;;0.40;100.00
7441;BME280;29616;51.950;8.572;2023-11-22T04:38:14;101289.13;;;0.28;100.00
7441;BME280;29616;51.950;8.572;2023-11-22T04:40:45;101312.72;;;0.43;100.00
7441;BME280;29616;51.950;8.572;2023-11-22T04:43:16;101313.72;;;0.40;100.00
7441;BME280;29616;51.950;8.572;2023-11-22T04:45:45;101310.03;;;0.43;100.00
7441;BME280;29616;51.950;8.572;2023-11-22T04:48:16;101309.34;;;0.38;100.00
7441;BME280;29616;51.950;8.572;2023-11-22T04:50:46;101325.25;;;0.44;100.00
7441;BME280;29616;51.950;8.572;2023-11-22T04:53:16;101326.91;;;0.48;100.00
7441;BME280;29616;51.950;8.572;2023-11-22T04:55:47;101326.75;;;0.51;100.00
7441;BME280;29616;51.950;8.572;2023-11-22T04:58:16;101326.91;;;0.48;100.00
7441;BME280;29616;51.950;8.572;2023-11-22T05:00:46;101326.31;;;0.61;100.00
7441;BME280;29616;51.950;8.572;2023-11-22T05:03:16;101323.78;;;0.58;100.00
7441;BME280;29616;51.950;8.572;2023-11-22T05:05:47;101301.97;;;0.43;100.00
7441;BME280;29616;51.950;8.572;2023-11-22T05:08:18;101320.38;;;0.53;100.00
7441;BME280;29616;51.950;8.572;2023-11-22T05:10:48;101293.47;;;0.32;100.00
7441;BME280;29616;51.950;8.572;2023-11-22T05:13:21;101321.75;;;0.42;100.00
7441;BME280;29616;51.950;8.572;2023-11-22T05:15:52;101321.34;;;0.52;100.00
7441;BME280;29616;51.950;8.572;2023-11-22T05:18:22;101305.72;;;0.39;100.00
7441;BME280;29616;51.950;8.572;2023-11-22T05:20:52;101334.13;;;0.46;100.00
7441;BME280;29616;51.950;8.572;2023-11-22T05:23:21;101330.16;;;0.33;100.00
7441;BME280;29616;51.950;8.572;2023-11-22T05:25:52;101320.69;;;0.23;100.00
7441;BME280;29616;51.950;8.572;2023-11-22T05:28:21;101315.31;;;0.23;100.00
7441;BME280;29616;51.950;8.572;2023-11-22T05:30:51;101338.22;;;0.33;100.00
7441;BME280;29616;51.950;8.572;2023-11-22T05:33:21;101371.91;;;0.43;100.00
7441;BME280;29616;51.950;8.572;2023-11-22T05:35:52;101343.25;;;0.19;100.00
7441;BME280;29616;51.950;8.572;2023-11-22T05:38:22;101360.13;;;0.24;100.00
7441;BME280;29616;51.950;8.572;2023-11-22T05:40:54;101363.25;;;0.35;100.00
7441;BME280;29616;51.950;8.572;2023-11-22T05:43:22;101365.25;;;0.30;100.00
7441;BME280;29616;51.950;8.572;2023-11-22T05:45:54;101379.28;;;0.38;100.00
7441;BME280;29616;51.950;8.572;2023-11-22T05:48:24;101344.81;;;0.24;100.00
7441;BME280;29616;51.950;8.572;2023-11-22T05:50:54;101366.28;;;0.49;100.00
7441;BME280;29616;51.950;8.572;2023-11-22T05:53:25;101336.25;;;0.38;100.00
7441;BME280;29616;51.950;8.572;2023-11-22T05:55:55;101355.81;;;0.65;100.00
7441;BME280;29616;51.950;8.572;2023-11-22T05:58:25;101359.38;;;0.65;100.00
7441;BME280;29616;51.950;8.572;2023-11-22T06:00:55;101341.53;;;0.63;100.00
7441;BME280;29616;51.950;8.572;2023-11-22T06:03:24;101343.03;;;0.70;100.00
7441;BME280;29616;51.950;8.572;2023-11-22T06:05:54;101348.19;;;0.76;100.00
7441;BME280;29616;51.950;8.572;2023-11-22T06:08:24;101318.63;;;0.52;100.00
7441;BME280;29616;51.950;8.572;2023-11-22T06:10:56;101339.16;;;0.55;100.00
7441;BME280;29616;51.950;8.572;2023-11-22T06:13:29;101347.81;;;0.63;100.00
7441;BME280;29616;51.950;8.572;2023-11-22T06:15:57;101334.91;;;0.49;100.00
7441;BME280;29616;51.950;8.572;2023-11-22T06:18:27;101360.56;;;0.58;100.00
7441;BME280;29616;51.950;8.572;2023-11-22T06:20:58;101373.06;;;0.59;100.00
7441;BME280;29616;51.950;8.572;2023-11-22T06:23:29;101343.97;;;0.47;100.00
7441;BME280;29616;51.950;8.572;2023-11-22T06:26:02;101350.28;;;0.46;100.00
7441;BME280;29616;51.950;8.572;2023-11-22T06:28:32;101373.94;;;0.59;100.00
7441;BME280;29616;51.950;8.572;2023-11-22T06:31:03;101378.56;;;0.56;100.00
7441;BME280;29616;51.950;8.572;2023-11-22T06:33:32;101375.13;;;0.52;100.00
7441;BME280;29616;51.950;8.572;2023-11-22T06:36:04;101368.81;;;0.53;100.00
7441;BME280;29616;51.950;8.572;2023-11-22T06:38:34;101364.72;;;0.43;100.00
7441;BME280;29616;51.950;8.572;2023-11-22T06:41:05;101370.75;;;0.50;100.00
7441;BME280;29616;51.950;8.572;2023-11-22T06:43:35;101343.72;;;0.30;100.00
7441;BME280;29616;51.950;8.572;2023-11-22T06:46:05;101326.88;;;0.25;100.00
7441;BME280;29616;51.950;8.572;2023-11-22T06:48:35;101359.53;;;0.39;100.00
7441;BME280;29616;51.950;8.572;2023-11-22T06:51:05;101333.34;;;0.21;100.00
7441;BME280;29616;51.950;8.572;2023-11-22T06:53:35;101358.25;;;0.26;100.00
7441;BME280;29616;51.950;8.572;2023-11-22T06:56:08;101360.22;;;0.21;100.00
7441;BME280;29616;51.950;8.572;2023-11-22T06:58:38;101347.91;;;0.14;100.00
7441;BME280;29616;51.950;8.572;2023-11-22T07:01:07;101355.06;;;0.15;100.00
7441;BME280;29616;51.950;8.572;2023-11-22T07:03:43;101357.03;;;0.34;100.00
7441;BME280;29616;51.950;8.572;2023-11-22T07:06:12;101328.91;;;-0.05;100.00
7441;BME280;29616;51.950;8.572;2023-11-22T07:08:44;101341.13;;;0.04;100.00
7441;BME280;29616;51.950;8.572;2023-11-22T07:11:21;101334.34;;;-0.07;100.00
7441;BME280;29616;51.950;8.572;2023-11-22T07:13:53;101342.19;;;-0.01;100.00
7441;BME280;29616;51.950;8.572;2023-11-22T07:16:22;101333.19;;;0.00;100.00
7441;BME280;29616;51.950;8.572;2023-11-22T07:18:53;101347.81;;;0.17;100.00
7441;BME280;29616;51.950;8.572;2023-11-22T07:21:23;101365.13;;;0.33;100.00
7441;BME280;29616;51.950;8.572;2023-11-22T07:23:53;101359.75;;;0.33;100.00
7441;BME280;29616;51.950;8.572;2023-11-22T07:26:24;101350.22;;;0.47;100.00
7441;BME280;29616;51.950;8.572;2023-11-22T07:28:55;101370.53;;;0.78;100.00
7441;BME280;29616;51.950;8.572;2023-11-22T07:31:28;101375.50;;;0.88;100.00
7441;BME280;29616;51.950;8.572;2023-11-22T07:33:57;101366.97;;;0.99;100.00
7441;BME280;29616;51.950;8.572;2023-11-22T07:36:27;101351.22;;;1.11;100.00
7441;BME280;29616;51.950;8.572;2023-11-22T07:38:55;101367.16;;;1.38;100.00
7441;BME280;29616;51.950;8.572;2023-11-22T07:41:28;101353.16;;;1.50;100.00
7441;BME280;29616;51.950;8.572;2023-11-22T07:43:58;101366.25;;;1.59;100.00
7441;BME280;29616;51.950;8.572;2023-11-22T07:46:27;101375.47;;;1.73;100.00
7441;BME280;29616;51.950;8.572;2023-11-22T07:48:57;101376.78;;;1.85;100.00
7441;BME280;29616;51.950;8.572;2023-11-22T07:51:25;101350.84;;;1.82;100.00
7441;BME280;29616;51.950;8.572;2023-11-22T07:53:56;101337.41;;;1.81;100.00
7441;BME280;29616;51.950;8.572;2023-11-22T07:56:25;101368.34;;;2.13;100.00
7441;BME280;29616;51.950;8.572;2023-11-22T07:58:56;101331.34;;;1.96;100.00
7441;BME280;29616;51.950;8.572;2023-11-22T08:01:27;101403.72;;;2.25;100.00
7441;BME280;29616;51.950;8.572;2023-11-22T08:04:00;101388.38;;;2.07;100.00
7441;BME280;29616;51.950;8.572;2023-11-22T08:06:30;101334.91;;;1.76;100.00
7441;BME280;29616;51.950;8.572;2023-11-22T08:08:59;101412.88;;;2.21;100.00
7441;BME280;29616;51.950;8.572;2023-11-22T08:11:30;101407.44;;;2.03;100.00
7441;BME280;29616;51.950;8.572;2023-11-22T08:14:03;101398.69;;;2.18;100.00
7441;BME280;29616;51.950;8.572;2023-11-22T08:16:33;101404.78;;;2.41;100.00
7441;BME280;29616;51.950;8.572;2023-11-22T08:19:07;101405.22;;;2.51;100.00
7441;BME280;29616;51.950;8.572;2023-11-22T08:21:35;101407.72;;;2.74;100.00
7441;BME280;29616;51.950;8.572;2023-11-22T08:24:07;101404.75;;;2.99;100.00
7441;BME280;29616;51.950;8.572;2023-11-22T08:26:36;101383.78;;;3.04;100.00
7441;BME280;29616;51.950;8.572;2023-11-22T08:29:06;101414.56;;;3.37;100.00
7441;BME280;29616;51.950;8.572;2023-11-22T08:31:36;101374.81;;;3.39;100.00
7441;BME280;29616;51.950;8.572;2023-11-22T08:34:06;101390.69;;;3.64;100.00
7441;BME280;29616;51.950;8.572;2023-11-22T08:36:36;101412.09;;;4.20;100.00
7441;BME280;29616;51.950;8.572;2023-11-22T08:39:08;101412.56;;;4.11;100.00
7441;BME280;29616;51.950;8.572;2023-11-22T08:41:40;101427.31;;;4.55;100.00
7441;BME280;29616;51.950;8.572;2023-11-22T08:44:10;101422.75;;;5.51;100.00
7441;BME280;29616;51.950;8.572;2023-11-22T08:46:40;101439.59;;;6.47;100.00
7441;BME280;29616;51.950;8.572;2023-11-22T08:49:10;101439.25;;;6.95;100.00
7441;BME280;29616;51.950;8.572;2023-11-22T08:51:40;101416.50;;;6.40;100.00
7441;BME280;29616;51.950;8.572;2023-11-22T08:54:11;101404.06;;;6.22;100.00
7441;BME280;29616;51.950;8.572;2023-11-22T08:56:45;101442.13;;;6.06;100.00
7441;BME280;29616;51.950;8.572;2023-11-22T08:59:18;101455.88;;;6.33;100.00
7441;BME280;29616;51.950;8.572;2023-11-22T09:01:47;101462.31;;;6.46;100.00
7441;BME280;29616;51.950;8.572;2023-11-22T09:04:17;101460.50;;;6.89;100.00
7441;BME280;29616;51.950;8.572;2023-11-22T09:06:49;101477.50;;;6.04;100.00
7441;BME280;29616;51.950;8.572;2023-11-22T09:09:19;101433.22;;;5.73;100.00
7441;BME280;29616;51.950;8.572;2023-11-22T09:11:50;101441.31;;;6.34;100.00
7441;BME280;29616;51.950;8.572;2023-11-22T09:14:22;101463.13;;;6.90;100.00
7441;BME280;29616;51.950;8.572;2023-11-22T09:16:52;101435.38;;;6.99;100.00
7441;BME280;29616;51.950;8.572;2023-11-22T09:19:25;101417.72;;;7.47;100.00
7441;BME280;29616;51.950;8.572;2023-11-22T09:21:55;101422.84;;;7.38;100.00
7441;BME280;29616;51.950;8.572;2023-11-22T09:24:25;101401.91;;;7.40;100.00
7441;BME280;29616;51.950;8.572;2023-11-22T09:26:54;101433.59;;;7.12;100.00
7441;BME280;29616;51.950;8.572;2023-11-22T09:29:24;101420.63;;;7.44;100.00
7441;BME280;29616;51.950;8.572;2023-11-22T09:31:53;101439.44;;;6.92;100.00
7441;BME280;29616;51.950;8.572;2023-11-22T09:34:21;101438.84;;;7.01;100.00
7441;BME280;29616;51.950;8.572;2023-11-22T09:36:51;101443.72;;;6.96;100.00
7441;BME280;29616;51.950;8.572;2023-11-22T09:39:24;101442.06;;;6.94;100.00
7441;BME280;29616;51.950;8.572;2023-11-22T09:41:54;101437.78;;;7.04;100.00
7441;BME280;29616;51.950;8.572;2023-11-22T09:44:25;101433.34;;;6.89;100.00
7441;BME280;29616;51.950;8.572;2023-11-22T09:46:55;101436.53;;;7.09;100.00
7441;BME280;29616;51.950;8.572;2023-11-22T09:49:30;101421.59;;;6.88;100.00
7441;BME280;29616;51.950;8.572;2023-11-22T09:52:01;101438.66;;;6.90;100.00
7441;BME280;29616;51.950;8.572;2023-11-22T09:54:31;101448.13;;;6.55;100.00
7441;BME280;29616;51.950;8.572;2023-11-22T09:57:04;101459.03;;;6.69;100.00
7441;BME280;29616;51.950;8.572;2023-11-22T09:59:40;101437.13;;;6.14;100.00
7441;BME280;29616;51.950;8.572;2023-11-22T10:02:12;101450.38;;;5.73;100.00
7441;BME280;29616;51.950;8.572;2023-11-22T10:04:42;101434.84;;;5.61;100.00
7441;BME280;29616;51.950;8.572;2023-11-22T10:07:10;101457.94;;;5.68;100.00
7441;BME280;29616;51.950;8.572;2023-11-22T10:09:41;101452.09;;;5.44;100.00
7441;BME280;29616;51.950;8.572;2023-11-22T10:12:12;101457.16;;;5.66;100.00
7441;BME280;29616;51.950;8.572;2023-11-22T10:14:46;101442.50;;;6.00;100.00
7441;BME280;29616;51.950;8.572;2023-11-22T10:17:18;101438.59;;;5.90;100.00
7441;BME280;29616;51.950;8.572;2023-11-22T10:19:52;101431.66;;;5.84;100.00
7441;BME280;29616;51.950;8.572;2023-11-22T10:22:22;101429.50;;;6.05;100.00
7441;BME280;29616;51.950;8.572;2023-11-22T10:24:58;101430.53;;;6.18;100.00
7441;BME280;29616;51.950;8.572;2023-11-22T10:27:28;101421.34;;;6.35;100.00
7441;BME280;29616;51.950;8.572;2023-11-22T10:29:59;101412.25;;;6.50;100.00
7441;BME280;29616;51.950;8.572;2023-11-22T10:32:29;101414.88;;;6.65;100.00
7441;BME280;29616;51.950;8.572;2023-11-22T10:34:57;101456.91;;;6.74;100.00
7441;BME280;29616;51.950;8.572;2023-11-22T10:37:26;101457.28;;;6.68;100.00
7441;BME280;29616;51.950;8.572;2023-11-22T10:39:58;101420.22;;;6.53;100.00
7441;BME280;29616;51.950;8.572;2023-11-22T10:42:28;101429.91;;;6.71;100.00
7441;BME280;29616;51.950;8.572;2023-11-22T10:45:01;101446.72;;;6.92;100.00
7441;BME280;29616;51.950;8.572;2023-11-22T10:47:37;101425.66;;;6.95;100.00
7441;BME280;29616;51.950;8.572;2023-11-22T10:50:09;101428.00;;;6.73;100.00
7441;BME280;29616;51.950;8.572;2023-11-22T10:52:42;101434.38;;;6.58;100.00
7441;BME280;29616;51.950;8.572;2023-11-22T10:55:12;101423.91;;;6.08;100.00
7441;BME280;29616;51.950;8.572;2023-11-22T10:57:46;101403.75;;;5.82;100.00
7441;BME280;29616;51.950;8.572;2023-11-22T11:00:22;101433.72;;;5.49;100.00
7441;BME280;29616;51.950;8.572;2023-11-22T11:02:59;101421.50;;;5.72;100.00
7441;BME280;29616;51.950;8.572;2023-11-22T11:05:31;101429.88;;;5.99;100.00
7441;BME280;29616;51.950;8.572;2023-11-22T11:08:08;101390.53;;;5.76;100.00
7441;BME280;29616;51.950;8.572;2023-11-22T11:10:43;101408.22;;;6.13;100.00
7441;BME280;29616;51.950;8.572;2023-11-22T11:13:14;101417.25;;;6.14;100.00
7441;BME280;29616;51.950;8.572;2023-11-22T11:15:46;101392.59;;;6.02;100.00
7441;BME280;29616;51.950;8.572;2023-11-22T11:18:16;101418.84;;;6.46;100.00
7441;BME280;29616;51.950;8.572;2023-11-22T11:20:47;101392.28;;;5.93;100.00
7441;BME280;29616;51.950;8.572;2023-11-22T11:23:18;101360.41;;;5.81;100.00
7441;BME280;29616;51.950;8.572;2023-11-22T11:25:52;101411.19;;;6.38;100.00
7441;BME280;29616;51.950;8.572;2023-11-22T11:28:23;101383.31;;;6.21;100.00
7441;BME280;29616;51.950;8.572;2023-11-22T11:30:56;101361.03;;;6.30;100.00
7441;BME280;29616;51.950;8.572;2023-11-22T11:33:33;101400.22;;;6.82;100.00
7441;BME280;29616;51.950;8.572;2023-11-22T11:36:04;101402.63;;;6.87;100.00
7441;BME280;29616;51.950;8.572;2023-11-22T11:38:37;101371.50;;;6.64;100.00
7441;BME280;29616;51.950;8.572;2023-11-22T11:41:08;101375.19;;;6.35;100.00
7441;BME280;29616;51.950;8.572;2023-11-22T11:43:42;101368.81;;;6.36;100.00
7441;BME280;29616;51.950;8.572;2023-11-22T11:46:15;101393.69;;;6.28;100.00
7441;BME280;29616;51.950;8.572;2023-11-22T11:48:48;101389.28;;;6.41;100.00
7441;BME280;29616;51.950;8.572;2023-11-22T11:51:22;101359.28;;;6.71;100.00
7441;BME280;29616;51.950;8.572;2023-11-22T11:53:54;101348.28;;;7.27;100.00
7441;BME280;29616;51.950;8.572;2023-11-22T11:56:24;101344.69;;;7.54;100.00
7441;BME280;29616;51.950;8.572;2023-11-22T11:58:56;101344.13;;;7.75;100.00
7441;BME280;29616;51.950;8.572;2023-11-22T12:01:29;101336.47;;;8.70;100.00
7441;BME280;29616;51.950;8.572;2023-11-22T12:04:01;101329.84;;;10.16;96.19
7441;BME280;29616;51.950;8.572;2023-11-22T12:06:32;101329.03;;;10.82;81.93
7441;BME280;29616;51.950;8.572;2023-11-22T12:09:05;101305.53;;;10.24;85.67
7441;BME280;29616;51.950;8.572;2023-11-22T12:11:34;101273.38;;;9.58;93.94
7441;BME280;29616;51.950;8.572;2023-11-22T12:14:04;101273.63;;;9.55;84.03
7441;BME280;29616;51.950;8.572;2023-11-22T12:16:35;101236.31;;;8.85;88.25
7441;BME280;29616;51.950;8.572;2023-11-22T12:19:07;101246.25;;;8.12;91.20
7441;BME280;29616;51.950;8.572;2023-11-22T12:21:38;101267.69;;;8.67;93.18
7441;BME280;29616;51.950;8.572;2023-11-22T12:24:09;101265.91;;;8.29;100.00
7441;BME280;29616;51.950;8.572;2023-11-22T12:26:40;101272.28;;;8.53;100.00
7441;BME280;29616;51.950;8.572;2023-11-22T12:29:12;101258.97;;;9.22;100.00
7441;BME280;29616;51.950;8.572;2023-11-22T12:31:46;101254.03;;;9.03;100.00
7441;BME280;29616;51.950;8.572;2023-11-22T12:34:19;101229.38;;;9.28;92.54
7441;BME280;29616;51.950;8.572;2023-11-22T12:36:50;101214.50;;;8.61;88.66
7441;BME280;29616;51.950;8.572;2023-11-22T12:39:20;101258.13;;;8.11;96.89
7441;BME280;29616;51.950;8.572;2023-11-22T12:41:52;101244.84;;;7.93;90.67
7441;BME280;29616;51.950;8.572;2023-11-22T12:44:47;101236.34;;;7.85;94.80
7441;BME280;29616;51.950;8.572;2023-11-22T12:47:31;101239.63;;;8.28;100.00
7441;BME280;29616;51.950;8.572;2023-11-22T12:50:06;101237.63;;;7.55;100.00
7441;BME280;29616;51.950;8.572;2023-11-22T12:52:37;101224.78;;;7.69;100.00
7441;BME280;29616;51.950;8.572;2023-11-22T12:55:08;101224.44;;;8.49;100.00
7441;BME280;29616;51.950;8.572;2023-11-22T12:57:39;101213.28;;;9.36;93.85
7441;BME280;29616;51.950;8.572;2023-11-22T13:00:11;101197.44;;;9.41;91.15
7441;BME280;29616;51.950;8.572;2023-11-22T13:02:42;101197.28;;;9.43;85.38
7441;BME280;29616;51.950;8.572;2023-11-22T13:05:26;101226.06;;;8.88;85.96
7441;BME280;29616;51.950;8.572;2023-11-22T13:07:57;101252.97;;;8.93;90.02
7441;BME280;29616;51.950;8.572;2023-11-22T13:10:29;101231.75;;;8.24;90.24
7441;BME280;29616;51.950;8.572;2023-11-22T13:12:59;101229.19;;;7.84;83.42
7441;BME280;29616;51.950;8.572;2023-11-22T13:15:30;101234.16;;;7.53;89.80
7441;BME280;29616;51.950;8.572;2023-11-22T13:18:01;101243.75;;;8.21;83.10
7441;BME280;29616;51.950;8.572;2023-11-22T13:20:32;101247.50;;;8.33;81.59